KSMX/SMX METAR and TAF weather

Enter ICAO airport designator
Station Type Date Time Source
KSMX METAR 2020/02/27 13:51 UTC NOAA

KSMX 271351Z 17006KT 7SM CLR 07/00 A3017 RMK AO2 SLP221 T00670000


Station Type Date Time Source
KSMX Decoded METAR 2020/02/27 13:51 UTC NOAA

SANTA MARIA PUBLIC AIRPORT, CA, United States (KSMX) 34-54N 120-28W 74M
Feb 27, 2020 - 08:51 AM EST / 2020.02.27 1351 UTC
Wind: from the S (170 degrees) at 7 MPH (6 KT):0
Visibility: 7 mile(s):0
Sky conditions: clear
Temperature: 44.1 F (6.7 C)
Dew Point: 32.0 F (0.0 C)
Relative Humidity: 62%
Pressure (altimeter): 30.17 in. Hg (1021 hPa)
ob: KSMX 271351Z 17006KT 7SM CLR 07/00 A3017 RMK AO2 SLP221 T00670000
cycle: 14

Station Type Date Time Source
KSMX TAF 2020/02/27 12:36 UTC NOAA

TAF KSMX 271134Z 2712/2812 VRB03KT P6SM SCT250
FM272000 32008KT P6SM SCT250
FM280300 VRB03KT P6SM SCT250

Example: see airport list